Time;durP1;ratioP1;P1;durP2;ratioP2;P2;SDS_P1;SDS_P2;PMS_P1;PMS_P2;Temp;Humidity;BMP_temperature;BMP_pressure;BME280_temperature;BME280_humidity;BME280_pressure;Samples;Min_cycle;Max_cycle;Signal;HPM_P1;HPM_P2
2021/03/24 05:01:26;;;;;;;73.90;35.78;;;6.50;99.90;;;;;;5443092;23;20272;-75
2021/03/24 05:03:58;;;;;;;67.82;34.33;;;6.50;99.90;;;;;;4897025;29;20218;-74
2021/03/24 05:06:31;;;;;;;61.50;33.55;;;6.50;99.90;;;;;;4897809;29;20568;-75
2021/03/24 05:08:59;;;;;;;68.32;36.03;;;6.50;99.90;;;;;;4897945;29;20386;-75
2021/03/24 05:11:29;;;;;;;65.88;33.88;;;6.50;99.90;;;;;;4897979;29;20231;-75
2021/03/24 05:14:02;;;;;;;67.80;36.47;;;6.50;99.90;;;;;;4897120;29;20207;-73
2021/03/24 05:16:32;;;;;;;65.80;34.50;;;6.50;99.90;;;;;;4897836;29;20218;-73
2021/03/24 05:18:59;;;;;;;70.55;35.30;;;6.50;99.90;;;;;;4897250;29;20218;-73
2021/03/24 05:21:51;;;;;;;66.60;34.50;;;6.50;99.90;;;;;;4897446;29;20238;-74
2021/03/24 05:24:23;;;;;;;68.28;33.70;;;6.50;99.90;;;;;;4897396;29;20231;-73
2021/03/24 05:26:53;;;;;;;72.57;36.40;;;6.50;99.90;;;;;;4897970;29;20527;-74
2021/03/24 05:29:23;;;;;;;67.70;35.53;;;6.50;99.90;;;;;;4897196;29;20212;-74
2021/03/24 05:31:54;;;;;;;60.40;33.90;;;6.60;99.90;;;;;;4898524;29;20266;-74
2021/03/24 05:34:25;;;;;;;69.20;35.90;;;6.60;99.90;;;;;;4897780;29;20211;-74
2021/03/24 05:36:52;;;;;;;66.60;36.50;;;6.60;99.90;;;;;;4900612;29;20207;-73
2021/03/24 05:39:23;;;;;;;66.32;35.55;;;6.60;99.90;;;;;;4900264;29;20214;-74
2021/03/24 05:41:56;;;;;;;62.08;35.38;;;6.60;99.90;;;;;;4901089;29;20237;-73
2021/03/24 05:44:50;;;;;;;67.07;34.70;;;6.60;99.90;;;;;;4899991;29;20234;-73
2021/03/24 05:47:30;;;;;;;67.38;35.03;;;6.60;99.90;;;;;;4897953;29;20306;-76
2021/03/24 05:50:04;;;;;;;70.82;33.70;;;6.60;99.90;;;;;;4884283;29;20210;-73
2021/03/24 05:52:44;;;;;;;69.25;34.58;;;6.70;99.90;;;;;;4898743;29;20263;-74
2021/03/24 05:55:24;;;;;;;78.65;37.78;;;6.60;99.90;;;;;;4897109;29;20333;-74
2021/03/24 05:58:04;;;;;;;72.80;37.78;;;6.70;99.90;;;;;;4897010;29;20208;-75
2021/03/24 06:00:39;;;;;;;63.88;35.47;;;6.70;99.90;;;;;;4896151;29;20242;-74
2021/03/24 06:03:14;;;;;;;69.05;35.97;;;6.70;99.90;;;;;;4897178;29;20221;-73
2021/03/24 06:05:59;;;;;;;70.72;35.55;;;6.70;99.90;;;;;;4897024;29;20337;-74
2021/03/24 06:08:49;;;;;;;63.50;36.05;;;6.70;99.90;;;;;;4896913;29;20215;-74
2021/03/24 06:11:39;;;;;;;70.03;36.83;;;6.70;99.90;;;;;;4897290;29;20231;-74
2021/03/24 06:14:36;;;;;;;69.13;36.67;;;6.70;99.90;;;;;;4896717;29;20217;-75
2021/03/24 06:17:37;;;;;;;71.95;36.50;;;6.80;99.90;;;;;;4897295;29;20226;-75
2021/03/24 06:20:14;;;;;;;65.35;36.00;;;6.80;99.90;;;;;;4843467;29;20209;-72
2021/03/24 06:22:52;;;;;;;70.15;38.15;;;6.80;99.90;;;;;;4897383;29;20588;-73
2021/03/24 06:25:35;;;;;;;68.55;35.92;;;6.80;99.90;;;;;;4898110;29;20242;-73
2021/03/24 06:28:23;;;;;;;73.45;36.33;;;6.90;99.90;;;;;;4879615;29;20270;-73
2021/03/24 06:30:59;;;;;;;81.38;38.08;;;6.90;99.90;;;;;;4878707;29;20258;-72
2021/03/24 06:33:47;;;;;;;78.43;38.60;;;6.90;99.90;;;;;;4881690;29;20275;-73
2021/03/24 06:36:33;;;;;;;68.25;36.28;;;6.90;99.90;;;;;;4888244;29;20258;-73
2021/03/24 06:39:23;;;;;;;75.20;37.95;;;7.00;99.90;;;;;;4900623;29;20626;-73
2021/03/24 06:42:04;;;;;;;68.78;35.97;;;7.00;99.90;;;;;;4900931;29;20223;-72
2021/03/24 06:45:07;;;;;;;71.22;37.25;;;7.00;99.90;;;;;;4900171;29;20237;-73
2021/03/24 06:47:45;;;;;;;68.63;35.30;;;7.00;99.90;;;;;;4890735;29;20206;-73
2021/03/24 06:50:25;;;;;;;86.00;43.72;;;7.10;99.90;;;;;;4899830;29;20263;-73
2021/03/24 06:53:34;;;;;;;70.72;39.45;;;7.10;99.90;;;;;;4900258;29;20211;-72
2021/03/24 06:56:19;;;;;;;66.18;36.22;;;7.10;99.90;;;;;;4900555;29;20263;-72
2021/03/24 06:59:06;;;;;;;76.05;39.25;;;7.10;99.90;;;;;;4900601;29;20219;-72
2021/03/24 07:01:59;;;;;;;73.25;39.53;;;7.20;99.90;;;;;;4900378;29;20650;-73
2021/03/24 07:05:01;;;;;;;73.85;36.20;;;7.20;99.90;;;;;;4899552;29;20733;-72
2021/03/24 07:07:59;;;;;;;67.57;38.00;;;7.20;99.90;;;;;;4899589;29;20238;-72
2021/03/24 07:10:49;;;;;;;71.72;38.08;;;7.30;99.90;;;;;;4900106;29;20219;-73
2021/03/24 07:13:55;;;;;;;72.75;37.78;;;7.20;99.90;;;;;;4899287;29;20663;-73
2021/03/24 07:16:43;;;;;;;69.97;35.03;;;7.30;99.90;;;;;;4899980;29;20203;-72
2021/03/24 07:19:27;;;;;;;70.15;37.22;;;7.30;99.90;;;;;;4899390;29;20218;-73
2021/03/24 07:22:22;;;;;;;68.13;37.13;;;7.40;99.90;;;;;;4900172;29;20240;-73
2021/03/24 07:25:26;;;;;;;62.15;35.78;;;7.50;99.90;;;;;;4900367;29;20242;-72
2021/03/24 07:28:15;;;;;;;69.18;35.28;;;7.50;99.90;;;;;;4900519;29;20211;-71
2021/03/24 07:30:57;;;;;;;68.50;36.63;;;7.60;99.90;;;;;;4892934;29;20235;-72
2021/03/24 07:33:31;;;;;;;65.03;36.38;;;7.60;99.90;;;;;;4899611;29;20222;-72
2021/03/24 07:36:17;;;;;;;71.80;38.08;;;7.60;99.90;;;;;;4899180;29;20214;-71
2021/03/24 07:39:03;;;;;;;67.22;36.53;;;7.70;99.90;;;;;;4899652;29;20576;-73
2021/03/24 07:41:55;;;;;;;64.28;36.60;;;7.70;99.90;;;;;;4899837;29;20235;-72
2021/03/24 07:44:39;;;;;;;67.47;38.33;;;7.70;99.90;;;;;;4898686;29;20267;-73
2021/03/24 07:47:28;;;;;;;66.68;37.45;;;7.80;99.90;;;;;;4899309;29;20207;-73
2021/03/24 07:50:10;;;;;;;61.38;35.95;;;7.90;99.90;;;;;;4899774;29;20216;-72
2021/03/24 07:52:51;;;;;;;66.10;37.05;;;7.90;99.90;;;;;;4899560;29;20219;-72
2021/03/24 07:55:24;;;;;;;64.75;35.45;;;8.00;99.90;;;;;;4899445;29;20203;-73
2021/03/24 07:58:14;;;;;;;61.67;35.88;;;8.00;99.90;;;;;;4899997;29;20266;-71
2021/03/24 08:00:49;;;;;;;66.13;36.78;;;8.00;99.90;;;;;;4899598;29;20242;-71
2021/03/24 08:03:21;;;;;;;65.50;34.30;;;8.10;99.90;;;;;;4898863;29;20199;-72
2021/03/24 08:06:26;;;;;;;63.70;36.35;;;8.20;99.90;;;;;;4898599;29;20242;-72
2021/03/24 08:09:26;;;;;;;58.83;37.35;;;8.30;99.90;;;;;;4899233;29;20286;-72
2021/03/24 08:12:02;;;;;;;65.70;34.63;;;8.40;99.90;;;;;;4888701;29;20258;-72
2021/03/24 08:14:58;;;;;;;60.97;35.60;;;8.50;99.90;;;;;;4899030;29;20191;-72
2021/03/24 08:17:34;;;;;;;67.22;37.08;;;8.60;99.90;;;;;;4901855;29;20216;-72
2021/03/24 08:20:23;;;;;;;62.15;36.30;;;8.70;99.90;;;;;;4902161;29;20275;-73
2021/03/24 08:23:07;;;;;;;65.93;36.00;;;8.70;99.90;;;;;;4904008;29;20214;-72
2021/03/24 08:25:43;;;;;;;64.32;36.83;;;8.80;99.90;;;;;;4902035;29;20226;-73
2021/03/24 08:28:18;;;;;;;62.85;36.80;;;8.90;99.90;;;;;;4899490;29;20218;-72
2021/03/24 08:31:01;;;;;;;59.75;36.13;;;8.90;99.90;;;;;;4898651;29;20257;-72
2021/03/24 08:33:56;;;;;;;73.03;36.95;;;9.00;99.90;;;;;;4898832;29;20290;-71
2021/03/24 08:36:49;;;;;;;56.17;35.33;;;9.10;99.90;;;;;;4899181;29;20207;-71
2021/03/24 08:39:51;;;;;;;64.60;36.47;;;9.20;99.90;;;;;;4898797;29;20557;-74
2021/03/24 08:42:58;;;;;;;64.90;36.70;;;9.30;99.90;;;;;;4898427;29;20603;-74
2021/03/24 08:45:29;;;;;;;66.95;37.95;;;9.40;99.90;;;;;;4897817;29;20242;-74
2021/03/24 08:48:00;;;;;;;55.55;34.95;;;9.50;99.90;;;;;;4899332;29;20593;-74
2021/03/24 08:50:31;;;;;;;58.25;35.40;;;9.60;99.90;;;;;;4897784;29;20211;-74
2021/03/24 08:53:06;;;;;;;63.20;38.30;;;9.80;99.90;;;;;;4898041;29;20218;-74
2021/03/24 08:55:47;;;;;;;56.78;35.17;;;9.90;99.90;;;;;;4897553;29;20207;-74
2021/03/24 08:58:16;;;;;;;62.10;37.15;;;9.90;99.90;;;;;;4897848;29;20222;-74
2021/03/24 09:01:09;;;;;;;62.80;35.42;;;10.00;99.90;;;;;;4897875;29;20238;-74
2021/03/24 09:04:03;;;;;;;58.35;36.45;;;10.10;99.90;;;;;;4875123;29;20212;-74
2021/03/24 09:06:40;;;;;;;60.83;35.88;;;10.10;99.90;;;;;;4879579;29;20270;-74
2021/03/24 09:09:30;;;;;;;63.22;37.45;;;10.20;99.90;;;;;;4879711;29;20219;-74
2021/03/24 09:12:01;;;;;;;61.28;35.53;;;10.40;99.90;;;;;;4887353;29;20230;-76
2021/03/24 09:14:33;;;;;;;59.80;37.03;;;10.40;99.90;;;;;;4897466;29;20225;-75
2021/03/24 09:17:36;;;;;;;57.28;35.85;;;10.50;99.90;;;;;;4898178;29;20326;-76
2021/03/24 09:20:44;;;;;;;53.78;35.25;;;10.60;99.90;;;;;;4867389;29;20274;-73
2021/03/24 09:24:03;;;;;;;63.20;36.17;;;10.70;99.90;;;;;;4897402;29;20219;-73
2021/03/24 09:27:08;;;;;;;57.97;36.22;;;10.90;99.90;;;;;;4897593;29;20235;-73
2021/03/24 09:29:43;;;;;;;59.67;36.20;;;11.00;99.90;;;;;;4897315;29;20211;-72
2021/03/24 09:32:28;;;;;;;57.33;36.80;;;11.00;99.90;;;;;;4897330;29;20231;-72
2021/03/24 09:35:21;;;;;;;56.70;37.30;;;11.10;99.90;;;;;;4897592;29;20203;-72
2021/03/24 09:37:54;;;;;;;61.15;35.35;;;11.20;99.90;;;;;;4897832;29;20222;-72
2021/03/24 09:40:31;;;;;;;56.83;36.33;;;11.20;99.90;;;;;;4897476;29;20652;-72
2021/03/24 09:43:01;;;;;;;60.53;38.03;;;11.20;99.90;;;;;;4897411;29;20225;-72
2021/03/24 09:45:31;;;;;;;61.03;37.88;;;11.30;99.90;;;;;;4897062;29;20326;-75
2021/03/24 09:48:06;;;;;;;59.15;36.47;;;11.20;99.90;;;;;;4897510;29;20215;-74
2021/03/24 09:50:38;;;;;;;54.80;35.60;;;11.30;99.90;;;;;;4897260;29;20604;-74
2021/03/24 09:53:09;;;;;;;57.15;36.65;;;11.40;99.90;;;;;;4897361;29;20286;-72
2021/03/24 09:55:39;;;;;;;62.53;37.90;;;11.50;99.90;;;;;;4897359;29;20276;-73
2021/03/24 09:58:57;;;;;;;69.80;38.90;;;11.60;99.90;;;;;;4897561;29;20557;-72
2021/03/24 10:01:40;;;;;;;63.70;40.87;;;11.60;99.90;;;;;;4897218;29;20498;-73
2021/03/24 10:04:16;;;;;;;60.30;38.03;;;11.60;99.90;;;;;;4896949;29;21027;-71
2021/03/24 10:06:52;;;;;;;60.03;37.70;;;11.60;99.90;;;;;;4899847;29;20594;-72
2021/03/24 10:09:29;;;;;;;52.67;36.23;;;11.70;99.90;;;;;;4901299;29;20987;-72
2021/03/24 10:12:18;;;;;;;58.40;39.63;;;11.80;99.90;;;;;;4901008;29;20809;-73
2021/03/24 10:14:52;;;;;;;60.17;39.03;;;12.00;99.90;;;;;;4900992;29;20472;-73
2021/03/24 10:17:23;;;;;;;62.10;38.70;;;12.00;99.90;;;;;;4900953;29;20525;-72
2021/03/24 10:19:57;;;;;;;59.67;37.10;;;12.00;99.90;;;;;;4900763;29;20474;-73
2021/03/24 10:22:32;;;;;;;59.17;37.77;;;12.00;99.90;;;;;;4900751;29;20995;-72
2021/03/24 10:25:04;;;;;;;54.97;36.07;;;12.10;99.90;;;;;;4901311;29;20542;-72
2021/03/24 10:27:33;;;;;;;57.17;36.60;;;12.10;99.90;;;;;;4901274;29;20467;-73
2021/03/24 10:30:19;;;;;;;55.80;38.13;;;12.10;99.90;;;;;;4900559;29;20467;-73
2021/03/24 10:32:51;;;;;;;56.37;37.93;;;12.20;99.90;;;;;;4900629;29;20475;-72
2021/03/24 10:35:25;;;;;;;55.40;36.20;;;12.20;99.90;;;;;;4900420;29;20471;-73
2021/03/24 10:37:57;;;;;;;55.77;34.83;;;12.40;99.90;;;;;;4900653;29;20466;-73
2021/03/24 10:40:27;;;;;;;54.37;33.93;;;12.50;99.90;;;;;;4900747;29;20474;-73
2021/03/24 10:42:58;;;;;;;49.90;33.43;;;12.40;99.90;;;;;;4900434;29;20467;-73
2021/03/24 10:45:27;;;;;;;46.20;33.80;;;12.50;99.90;;;;;;4900525;29;20483;-73
2021/03/24 10:47:57;;;;;;;41.40;27.80;;;12.50;99.90;;;;;;4901165;29;20471;-72
2021/03/24 10:50:36;;;;;;;45.43;30.77;;;12.40;99.90;;;;;;4900248;29;20475;-76
2021/03/24 10:53:07;;;;;;;49.37;30.73;;;12.40;99.90;;;;;;4900850;29;20462;-77
2021/03/24 10:55:36;;;;;;;49.80;32.40;;;12.20;99.90;;;;;;4901141;29;20526;-73
2021/03/24 10:58:24;;;;;;;46.63;31.65;;;12.10;99.90;;;;;;4902579;29;20467;-72
2021/03/24 11:01:02;;;;;;;46.40;31.30;;;12.10;99.90;;;;;;4900342;29;20599;-72
2021/03/24 11:03:36;;;;;;;45.38;33.40;;;12.20;99.90;;;;;;4900519;29;20471;-73
2021/03/24 11:06:11;;;;;;;48.78;33.33;;;12.30;99.90;;;;;;4900106;29;20238;-73
2021/03/24 11:08:44;;;;;;;49.55;31.75;;;12.40;99.90;;;;;;4901078;29;20215;-73
2021/03/24 11:11:16;;;;;;;51.80;29.98;;;12.40;99.90;;;;;;4902917;29;20341;-73
2021/03/24 11:13:55;;;;;;;43.37;31.47;;;12.40;99.90;;;;;;4905101;29;20220;-73
2021/03/24 11:16:27;;;;;;;50.23;32.27;;;12.50;99.90;;;;;;4905750;29;20486;-73
2021/03/24 11:19:05;;;;;;;49.80;33.23;;;12.50;99.90;;;;;;4904338;29;20447;-73
2021/03/24 11:21:41;;;;;;;48.83;33.10;;;12.60;99.90;;;;;;4904522;29;20483;-71
2021/03/24 11:24:18;;;;;;;47.27;31.70;;;12.60;99.90;;;;;;4900583;29;20470;-71
2021/03/24 11:27:08;;;;;;;50.57;32.20;;;12.60;99.90;;;;;;4900211;29;20494;-71
2021/03/24 11:29:43;;;;;;;50.65;32.33;;;12.60;99.90;;;;;;4899532;29;20527;-72
2021/03/24 11:32:24;;;;;;;47.63;33.37;;;12.60;99.90;;;;;;4881109;29;20238;-72
2021/03/24 11:34:55;;;;;;;44.33;31.10;;;12.70;99.90;;;;;;4880726;29;20471;-72
2021/03/24 11:37:42;;;;;;;43.77;30.80;;;12.80;99.90;;;;;;4881129;29;20476;-72
2021/03/24 11:40:23;;;;;;;45.63;30.73;;;12.80;99.90;;;;;;4884027;29;20909;-72
2021/03/24 11:42:54;;;;;;;44.53;32.37;;;12.70;99.90;;;;;;4899474;29;20967;-72
2021/03/24 11:45:22;;;;;;;46.97;31.87;;;12.60;99.90;;;;;;4899771;29;20502;-72
2021/03/24 11:48:20;;;;;;;46.33;32.08;;;12.60;99.90;;;;;;4899799;29;20475;-72
2021/03/24 11:50:58;;;;;;;48.00;30.52;;;12.60;99.90;;;;;;4896701;29;20223;-73
2021/03/24 11:53:37;;;;;;;48.50;32.53;;;12.50;99.90;;;;;;4899298;29;20314;-73
2021/03/24 11:56:22;;;;;;;50.58;33.15;;;12.50;99.90;;;;;;4900042;29;20668;-72
2021/03/24 11:58:56;;;;;;;53.20;32.00;;;12.50;99.90;;;;;;4899289;29;20218;-72
2021/03/24 12:01:42;;;;;;;49.33;33.17;;;12.60;99.90;;;;;;4898939;29;20506;-71
2021/03/24 12:04:30;;;;;;;47.88;31.50;;;12.80;99.90;;;;;;4898622;29;20467;-72
2021/03/24 12:07:11;;;;;;;46.37;32.97;;;13.00;99.90;;;;;;4899077;29;20230;-72
2021/03/24 12:09:40;;;;;;;47.43;32.63;;;13.10;99.90;;;;;;4898372;29;20893;-72
2021/03/24 12:12:15;;;;;;;43.80;31.10;;;13.20;99.90;;;;;;4898922;29;20547;-72
2021/03/24 12:14:43;;;;;;;45.87;33.07;;;13.30;99.90;;;;;;4898292;29;20542;-72
2021/03/24 12:17:26;;;;;;;48.80;33.23;;;13.40;99.90;;;;;;4898764;29;20462;-71
2021/03/24 12:20:03;;;;;;;44.80;31.23;;;13.50;99.90;;;;;;4898129;29;20484;-71
2021/03/24 12:22:31;;;;;;;45.10;34.10;;;13.60;99.90;;;;;;4898503;29;20486;-72
2021/03/24 12:25:04;;;;;;;45.93;33.87;;;13.60;99.90;;;;;;4898369;29;20487;-72
2021/03/24 12:27:33;;;;;;;47.13;33.57;;;13.70;99.90;;;;;;4899078;29;20471;-75
2021/03/24 12:30:04;;;;;;;44.77;30.90;;;13.80;99.90;;;;;;4896914;29;20527;-75
2021/03/24 12:32:36;;;;;;;45.27;31.40;;;13.80;99.90;;;;;;4898655;29;20591;-74
2021/03/24 12:35:05;;;;;;;50.43;31.77;;;13.70;99.90;;;;;;4897786;29;20578;-75
2021/03/24 12:37:38;;;;;;;42.53;31.20;;;13.70;99.90;;;;;;4898605;29;20987;-76
2021/03/24 12:40:15;;;;;;;45.73;31.90;;;13.70;99.90;;;;;;4897955;29;20470;-75
2021/03/24 12:42:42;;;;;;;51.33;33.77;;;13.60;99.90;;;;;;4898609;29;20474;-75
2021/03/24 12:45:29;;;;;;;50.63;32.93;;;13.50;99.90;;;;;;4897802;29;20558;-75
2021/03/24 12:48:09;;;;;;;47.20;32.20;;;13.40;99.90;;;;;;4898489;29;20467;-75
2021/03/24 12:50:39;;;;;;;45.73;31.10;;;13.40;99.90;;;;;;4897457;29;20487;-75
2021/03/24 12:53:17;;;;;;;43.33;30.43;;;13.50;99.90;;;;;;4897999;29;20539;-74
2021/03/24 12:55:44;;;;;;;44.10;30.10;;;13.60;99.90;;;;;;4898347;29;20475;-75
2021/03/24 12:58:28;;;;;;;42.60;30.50;;;13.70;99.90;;;;;;4897706;29;20472;-75
2021/03/24 13:01:05;;;;;;;44.80;31.47;;;13.80;99.90;;;;;;4879442;29;20503;-76
2021/03/24 13:03:54;;;;;;;46.93;31.10;;;13.80;99.90;;;;;;4879349;29;20468;-75
2021/03/24 13:06:37;;;;;;;50.20;32.50;;;13.80;99.90;;;;;;4879386;29;20847;-76
2021/03/24 13:09:14;;;;;;;46.17;32.30;;;13.90;99.90;;;;;;4885119;29;20498;-77
2021/03/24 13:11:48;;;;;;;39.50;29.60;;;13.80;99.90;;;;;;4898002;29;20490;-75
2021/03/24 13:14:54;;;;;;;46.07;31.33;;;13.80;99.90;;;;;;4897484;29;20470;-76
2021/03/24 13:17:28;;;;;;;50.20;30.83;;;13.80;99.90;;;;;;4893586;29;20459;-72
2021/03/24 13:20:07;;;;;;;43.90;30.50;;;13.90;99.90;;;;;;4897721;29;20505;-74
2021/03/24 13:22:41;;;;;;;42.47;30.50;;;14.00;99.90;;;;;;4897622;29;20905;-72
2021/03/24 13:25:16;;;;;;;43.67;29.10;;;14.10;99.90;;;;;;4897508;29;20494;-72
2021/03/24 13:28:10;;;;;;;40.07;28.73;;;14.20;99.90;;;;;;4898156;29;20567;-72
2021/03/24 13:30:42;;;;;;;42.90;29.43;;;14.10;99.90;;;;;;4897214;29;20514;-73
2021/03/24 13:33:13;;;;;;;42.83;28.73;;;14.20;99.90;;;;;;4897600;29;20472;-73
2021/03/24 13:35:43;;;;;;;38.97;28.53;;;14.10;99.90;;;;;;4897004;29;20470;-72
2021/03/24 13:38:22;;;;;;;35.90;27.87;;;14.20;99.90;;;;;;4897666;29;20471;-72
2021/03/24 13:40:49;;;;;;;42.60;29.17;;;14.20;99.90;;;;;;4897340;29;20499;-73
2021/03/24 13:43:23;;;;;;;35.50;28.30;;;14.20;99.90;;;;;;4896843;29;20471;-73
2021/03/24 13:45:51;;;;;;;37.53;27.93;;;14.10;99.90;;;;;;4897417;29;20495;-73
2021/03/24 13:48:22;;;;;;;36.67;26.83;;;14.10;99.90;;;;;;4897254;29;20460;-73
2021/03/24 13:50:52;;;;;;;36.83;26.60;;;14.10;99.90;;;;;;4896579;29;21153;-73
2021/03/24 13:53:30;;;;;;;36.03;26.13;;;14.20;99.90;;;;;;4896928;29;20479;-72
2021/03/24 13:56:09;;;;;;;41.10;26.80;;;14.20;99.90;;;;;;4897168;29;20463;-74
2021/03/24 13:59:07;;;;;;;37.27;26.73;;;14.10;99.90;;;;;;4896786;29;20478;-74
2021/03/24 14:01:43;;;;;;;32.67;24.27;;;14.20;99.90;;;;;;4897335;29;20562;-75
2021/03/24 14:04:29;;;;;;;37.73;25.33;;;14.20;99.90;;;;;;4896636;29;20479;-73
2021/03/24 14:07:16;;;;;;;34.37;24.20;;;14.20;99.90;;;;;;4897046;29;20495;-73
2021/03/24 14:09:46;;;;;;;33.97;26.03;;;14.30;99.90;;;;;;4897132;29;20531;-71
2021/03/24 14:12:36;;;;;;;36.03;26.70;;;14.30;99.90;;;;;;4897065;29;20487;-72
2021/03/24 14:15:15;;;;;;;37.50;25.20;;;14.40;99.90;;;;;;4869076;29;20468;-72
2021/03/24 14:17:59;;;;;;;33.20;23.40;;;14.40;99.90;;;;;;4897228;29;20459;-71
2021/03/24 14:20:30;;;;;;;32.10;24.27;;;14.40;99.90;;;;;;4896407;29;20594;-71
2021/03/24 14:23:05;;;;;;;33.17;26.00;;;14.40;99.90;;;;;;4896960;29;20478;-71
2021/03/24 14:25:34;;;;;;;27.87;23.23;;;14.40;99.90;;;;;;4897101;29;20486;-74
2021/03/24 14:28:10;;;;;;;32.40;23.70;;;14.30;99.90;;;;;;4896711;29;20470;-73
2021/03/24 14:30:49;;;;;;;35.77;25.27;;;14.40;99.90;;;;;;4897099;29;20495;-71
2021/03/24 14:33:31;;;;;;;38.90;24.23;;;14.40;99.90;;;;;;4897563;29;20472;-73
2021/03/24 14:36:02;;;;;;;32.43;23.60;;;14.50;99.90;;;;;;4896985;29;20474;-73
2021/03/24 14:38:49;;;;;;;33.93;24.63;;;14.50;99.90;;;;;;4896968;29;20468;-73
2021/03/24 14:41:23;;;;;;;32.57;24.13;;;14.50;99.90;;;;;;4897061;29;20862;-71
2021/03/24 14:44:12;;;;;;;36.30;24.43;;;14.50;99.90;;;;;;4896412;29;20467;-71
2021/03/24 14:46:57;;;;;;;31.17;22.30;;;14.50;99.90;;;;;;4897019;29;20502;-73
2021/03/24 14:49:50;;;;;;;28.77;22.20;;;14.50;99.90;;;;;;4877737;29;21009;-73
2021/03/24 14:52:26;;;;;;;32.07;22.90;;;14.50;99.90;;;;;;4877704;29;21375;-72
2021/03/24 14:54:56;;;;;;;32.10;22.17;;;14.50;99.90;;;;;;4881710;29;20479;-71
2021/03/24 14:57:30;;;;;;;30.60;22.17;;;14.50;99.90;;;;;;4886186;29;20470;-72
2021/03/24 14:59:57;;;;;;;34.17;23.47;;;14.50;99.90;;;;;;4900565;29;20467;-72
2021/03/24 15:02:34;;;;;;;31.23;23.90;;;14.40;99.90;;;;;;4900730;29;20487;-72
2021/03/24 15:05:34;;;;;;;30.30;23.60;;;14.50;99.90;;;;;;4900249;29;20773;-72
2021/03/24 15:08:18;;;;;;;27.77;21.63;;;14.50;99.90;;;;;;4899794;29;20933;-71
2021/03/24 15:11:03;;;;;;;33.80;24.20;;;14.50;99.90;;;;;;4899670;29;20987;-71
2021/03/24 15:13:43;;;;;;;29.57;22.20;;;14.50;99.90;;;;;;4899683;29;20513;-71
2021/03/24 15:16:22;;;;;;;31.73;23.70;;;14.50;99.90;;;;;;4900083;29;20943;-71
2021/03/24 15:19:02;;;;;;;34.03;23.37;;;14.50;99.90;;;;;;4899238;29;20987;-72
2021/03/24 15:21:36;;;;;;;33.50;24.33;;;14.50;99.90;;;;;;4900060;29;20519;-71
2021/03/24 15:24:17;;;;;;;31.77;22.60;;;14.50;99.90;;;;;;4899774;29;21132;-71
2021/03/24 15:26:53;;;;;;;32.50;24.00;;;14.40;99.90;;;;;;4899723;29;20490;-72
2021/03/24 15:29:30;;;;;;;31.83;24.17;;;14.40;99.90;;;;;;4899436;29;20475;-71
2021/03/24 15:32:09;;;;;;;32.53;24.97;;;14.40;99.90;;;;;;4899845;29;20846;-71
2021/03/24 15:34:42;;;;;;;33.13;23.73;;;14.40;99.90;;;;;;4899598;29;20549;-71
2021/03/24 15:37:43;;;;;;;35.00;25.80;;;14.30;99.90;;;;;;4899389;29;20467;-70
2021/03/24 15:40:23;;;;;;;28.83;22.50;;;14.30;99.90;;;;;;4899712;29;20470;-70
2021/03/24 15:42:54;;;;;;;33.10;23.70;;;14.20;99.90;;;;;;4899514;29;20463;-70
2021/03/24 15:45:33;;;;;;;33.77;23.93;;;14.20;99.90;;;;;;4898955;29;21015;-71
2021/03/24 15:48:00;;;;;;;30.27;22.77;;;14.10;99.90;;;;;;4898819;29;20833;-71
2021/03/24 15:50:45;;;;;;;31.80;23.90;;;14.10;99.90;;;;;;4898683;29;20471;-72
2021/03/24 15:53:38;;;;;;;35.15;23.50;;;14.10;99.90;;;;;;4899150;29;20471;-72
2021/03/24 15:56:17;;;;;;;32.17;22.53;;;14.10;99.90;;;;;;4899260;29;20309;-72
2021/03/24 15:59:09;;;;;;;32.20;24.10;;;14.10;99.90;;;;;;4898871;29;20471;-72
2021/03/24 16:01:41;;;;;;;37.77;25.67;;;14.10;99.90;;;;;;4899313;29;20490;-71
2021/03/24 16:04:38;;;;;;;31.80;23.40;;;14.10;99.90;;;;;;4898355;29;20505;-71
2021/03/24 16:07:14;;;;;;;33.83;24.30;;;14.00;99.90;;;;;;4898403;29;20502;-72
2021/03/24 16:10:02;;;;;;;34.57;24.67;;;14.00;99.90;;;;;;4899314;29;20474;-72
2021/03/24 16:12:53;;;;;;;31.57;22.73;;;14.00;99.90;;;;;;4898784;29;20578;-72
2021/03/24 16:15:31;;;;;;;37.60;24.93;;;13.90;99.90;;;;;;4898335;29;20464;-72
2021/03/24 16:18:08;;;;;;;35.83;23.57;;;13.90;99.90;;;;;;4898844;29;20468;-71
2021/03/24 16:20:46;;;;;;;34.87;24.13;;;13.90;99.90;;;;;;4898623;29;20495;-72
2021/03/24 16:23:23;;;;;;;33.95;24.08;;;13.90;99.90;;;;;;4898780;29;20471;-72
2021/03/24 16:25:53;;;;;;;34.50;22.80;;;13.80;99.90;;;;;;4898531;29;20314;-72
2021/03/24 16:28:23;;;;;;;33.50;24.13;;;13.80;99.90;;;;;;4879541;29;20700;-71
2021/03/24 16:30:53;;;;;;;33.10;23.00;;;13.70;99.90;;;;;;4880014;29;20492;-71
2021/03/24 16:34:01;;;;;;;35.58;24.30;;;13.60;99.90;;;;;;4879895;29;20504;-71
2021/03/24 16:36:47;;;;;;;34.13;24.98;;;13.60;99.90;;;;;;4884728;29;20199;-71
2021/03/24 16:40:02;;;;;;;32.40;23.65;;;13.50;99.90;;;;;;4898583;29;20244;-71
2021/03/24 16:43:01;;;;;;;38.17;24.90;;;13.40;99.90;;;;;;4898157;29;20634;-71
2021/03/24 16:45:45;;;;;;;35.08;24.17;;;13.40;99.90;;;;;;4897904;29;20232;-71
2021/03/24 16:48:46;;;;;;;34.25;24.75;;;13.40;99.90;;;;;;4898281;29;20215;-71
2021/03/24 16:51:48;;;;;;;34.88;24.48;;;13.30;99.90;;;;;;4898157;29;20231;-71
2021/03/24 16:54:19;;;;;;;38.00;24.70;;;13.30;99.90;;;;;;4898004;29;20664;-71
2021/03/24 16:57:20;;;;;;;32.60;23.83;;;13.20;99.90;;;;;;4898072;29;20657;-71
2021/03/24 16:59:53;;;;;;;34.55;25.08;;;13.20;99.90;;;;;;4897827;29;20215;-72
2021/03/24 17:02:31;;;;;;;35.60;25.58;;;13.10;99.90;;;;;;4896970;29;20334;-71
2021/03/24 17:05:12;;;;;;;34.05;24.65;;;13.00;99.90;;;;;;4895928;29;20215;-72
2021/03/24 17:07:44;;;;;;;38.53;24.98;;;12.90;99.90;;;;;;4896417;29;20214;-72
2021/03/24 17:10:19;;;;;;;31.85;24.67;;;12.90;99.90;;;;;;4897361;29;20699;-71
2021/03/24 17:12:55;;;;;;;37.08;25.00;;;12.80;99.90;;;;;;4897971;29;20696;-71
2021/03/24 17:15:25;;;;;;;38.05;26.50;;;12.70;99.90;;;;;;4896895;29;20345;-71
2021/03/24 17:17:59;;;;;;;38.22;27.08;;;12.60;99.90;;;;;;4897649;29;20207;-72
2021/03/24 17:20:34;;;;;;;40.70;25.75;;;12.50;99.90;;;;;;4900245;29;20211;-72
2021/03/24 17:23:03;;;;;;;39.67;26.48;;;12.40;99.90;;;;;;4900935;29;20214;-72
2021/03/24 17:25:33;;;;;;;36.40;26.20;;;12.40;99.90;;;;;;4900440;29;20227;-72
2021/03/24 17:28:30;;;;;;;37.70;26.38;;;12.30;99.90;;;;;;4898179;29;20668;-72
2021/03/24 17:31:22;;;;;;;40.00;25.25;;;12.20;99.90;;;;;;4897874;29;20231;-72
2021/03/24 17:33:54;;;;;;;39.15;26.63;;;12.10;99.90;;;;;;4894552;29;20652;-70
2021/03/24 17:36:48;;;;;;;39.33;25.70;;;11.90;99.90;;;;;;4901004;29;20210;-72
2021/03/24 17:39:33;;;;;;;42.10;27.10;;;11.80;99.90;;;;;;4899182;29;20221;-72
2021/03/24 17:42:08;;;;;;;45.03;27.15;;;11.70;99.90;;;;;;4899568;29;20573;-72
2021/03/24 17:44:42;;;;;;;34.88;25.38;;;11.70;99.90;;;;;;4899674;29;20214;-72
2021/03/24 17:47:22;;;;;;;44.38;27.45;;;11.60;99.90;;;;;;4899826;29;20227;-72
2021/03/24 17:49:53;;;;;;;43.80;28.02;;;11.50;99.90;;;;;;4898958;29;20225;-72
2021/03/24 17:52:37;;;;;;;41.88;27.08;;;11.40;99.90;;;;;;4899098;29;20277;-72
2021/03/24 17:55:20;;;;;;;40.35;27.00;;;11.30;99.90;;;;;;4899069;29;20233;-71
2021/03/24 17:57:52;;;;;;;37.30;26.60;;;11.20;99.90;;;;;;4898773;29;20207;-72
2021/03/24 18:00:24;;;;;;;43.10;28.15;;;11.10;99.90;;;;;;4898374;29;20219;-71
2021/03/24 18:03:05;;;;;;;41.95;27.58;;;11.10;99.90;;;;;;4898686;29;20672;-72
2021/03/24 18:05:35;;;;;;;37.83;25.88;;;11.00;99.90;;;;;;4897946;29;20227;-71
2021/03/24 18:08:21;;;;;;;43.22;29.00;;;10.90;99.90;;;;;;4897555;29;20238;-72
2021/03/24 18:10:47;;;;;;;43.53;28.05;;;10.80;99.90;;;;;;4900072;29;20231;-72
2021/03/24 18:13:24;;;;;;;40.55;28.45;;;10.80;99.90;;;;;;4898574;29;20322;-72
2021/03/24 18:15:51;;;;;;;46.03;28.75;;;10.70;99.90;;;;;;4899789;29;20676;-73
2021/03/24 18:18:22;;;;;;;44.20;27.40;;;10.70;99.90;;;;;;4904135;29;20301;-73
2021/03/24 18:20:51;;;;;;;49.25;27.88;;;10.60;99.90;;;;;;4902120;29;20581;-72
2021/03/24 18:23:21;;;;;;;44.67;30.63;;;10.60;99.90;;;;;;4902232;29;20218;-73
2021/03/24 18:25:59;;;;;;;45.10;28.85;;;10.50;99.90;;;;;;4898998;29;20231;-72
2021/03/24 18:28:28;;;;;;;42.40;28.60;;;10.50;99.90;;;;;;4900465;29;20211;-71
2021/03/24 18:31:02;;;;;;;39.92;30.25;;;10.40;99.90;;;;;;4903163;29;20245;-71
2021/03/24 18:33:32;;;;;;;38.95;29.08;;;10.40;99.90;;;;;;4903253;29;20221;-71
2021/03/24 18:36:11;;;;;;;40.97;28.00;;;10.40;99.90;;;;;;4902497;29;20223;-71